Capitol Logistics 548




VNKT
Tribhuvan International Airport
Kathmandu, NP
RKSI
Incheon International Airport
Seoul, KR

Activity Log

Date Flight Route Aircraft Duration
04/25/2022 CPX548 IGRI1B KIMTI B345 LXA W500 DM W9 KDJ V69 WFX B213 IVSOL W4 IKEKA A591 AGAVO G597 GONAV GONA3M B744 4h 45m

Route Details

Aircraft Information
Group: Trans-Pacific Ops
Types: B744,B763,MD11
Route Data
Demand: L
Distance: 2144nm
Duration: 5h 00m
Recm'd Route: IGRI1B KIMTI B345 LXA W500 DM W9 KDJ V69 WFX B213 IVSOL W4 IKEKA A591 AGAVO G597 GONAV GONA3M
Origin Wx: VNKT 270450Z 03003KT 7000 FEW015 24/16 Q1011 NOSIG
Dest. Wx: RKSI 270500Z 25011KT CAVOK 21/11 Q1001 NOSIG
Notes:

Financial History
Total Freight: 104,610lbs
Average Load: 104,610lbs/flt
Fuel Used: 132,775lbs
Avg. Fuel Used: 132,775lbs/flt
Fuel Expense: $71,699
Avg. Fuel Expense: $71,699
Avg. Fuel Cost: $0.54/lbs
Total Gross Income: $450,869
Pilot Pay: $239
Total Expenses: $58,270
Total Revenue: $319,837
Average Revenue: $450,869.09